sensor_id;sensor_type;location;lat;lon;timestamp;P1;durP1;ratioP1;P2;durP2;ratioP2
56581;SDS011;42463;52.214;21.238;2022-09-04T00:02:49;20.70;;;10.70;;
56581;SDS011;42463;52.214;21.238;2022-09-04T00:05:26;18.90;;;10.40;;
56581;SDS011;42463;52.214;21.238;2022-09-04T00:08:02;17.90;;;10.50;;
56581;SDS011;42463;52.214;21.238;2022-09-04T00:10:41;19.10;;;10.50;;
56581;SDS011;42463;52.214;21.238;2022-09-04T00:13:18;16.00;;;10.20;;
56581;SDS011;42463;52.214;21.238;2022-09-04T00:15:51;17.90;;;11.10;;
56581;SDS011;42463;52.214;21.238;2022-09-04T00:18:34;20.50;;;10.70;;
56581;SDS011;42463;52.214;21.238;2022-09-04T00:21:08;15.60;;;11.00;;
56581;SDS011;42463;52.214;21.238;2022-09-04T00:23:43;14.10;;;10.20;;
56581;SDS011;42463;52.214;21.238;2022-09-04T00:26:20;16.30;;;10.50;;
56581;SDS011;42463;52.214;21.238;2022-09-04T00:28:57;18.90;;;11.10;;
56581;SDS011;42463;52.214;21.238;2022-09-04T00:31:28;16.90;;;10.40;;
56581;SDS011;42463;52.214;21.238;2022-09-04T00:34:04;17.20;;;10.10;;
56581;SDS011;42463;52.214;21.238;2022-09-04T00:36:41;16.60;;;10.00;;
56581;SDS011;42463;52.214;21.238;2022-09-04T00:39:14;15.10;;;10.10;;
56581;SDS011;42463;52.214;21.238;2022-09-04T00:41:50;21.80;;;11.40;;
56581;SDS011;42463;52.214;21.238;2022-09-04T00:44:38;19.00;;;10.90;;
56581;SDS011;42463;52.214;21.238;2022-09-04T00:47:24;17.50;;;10.60;;
56581;SDS011;42463;52.214;21.238;2022-09-04T00:50:19;18.90;;;12.00;;
56581;SDS011;42463;52.214;21.238;2022-09-04T00:55:57;18.80;;;10.80;;
56581;SDS011;42463;52.214;21.238;2022-09-04T00:58:50;20.30;;;10.80;;
56581;SDS011;42463;52.214;21.238;2022-09-04T01:01:47;18.10;;;10.80;;
56581;SDS011;42463;52.214;21.238;2022-09-04T01:04:33;17.80;;;10.50;;
56581;SDS011;42463;52.214;21.238;2022-09-04T01:07:16;17.30;;;10.90;;
56581;SDS011;42463;52.214;21.238;2022-09-04T01:10:04;17.00;;;10.30;;
56581;SDS011;42463;52.214;21.238;2022-09-04T01:12:43;18.30;;;11.40;;
56581;SDS011;42463;52.214;21.238;2022-09-04T01:15:22;18.50;;;11.00;;
56581;SDS011;42463;52.214;21.238;2022-09-04T01:17:58;18.90;;;11.10;;
56581;SDS011;42463;52.214;21.238;2022-09-04T01:20:44;14.40;;;9.80;;
56581;SDS011;42463;52.214;21.238;2022-09-04T01:23:39;16.70;;;11.00;;
56581;SDS011;42463;52.214;21.238;2022-09-04T01:26:20;18.60;;;10.90;;
56581;SDS011;42463;52.214;21.238;2022-09-04T01:28:57;18.60;;;11.20;;
56581;SDS011;42463;52.214;21.238;2022-09-04T01:31:39;18.70;;;10.90;;
56581;SDS011;42463;52.214;21.238;2022-09-04T01:34:27;16.80;;;11.00;;
56581;SDS011;42463;52.214;21.238;2022-09-04T01:37:09;19.20;;;11.10;;
56581;SDS011;42463;52.214;21.238;2022-09-04T01:39:44;18.20;;;11.60;;
56581;SDS011;42463;52.214;21.238;2022-09-04T01:42:19;17.30;;;11.20;;
56581;SDS011;42463;52.214;21.238;2022-09-04T01:44:52;18.90;;;11.20;;
56581;SDS011;42463;52.214;21.238;2022-09-04T01:47:21;19.50;;;11.80;;
56581;SDS011;42463;52.214;21.238;2022-09-04T01:49:58;18.30;;;10.50;;
56581;SDS011;42463;52.214;21.238;2022-09-04T01:52:37;20.30;;;11.00;;
56581;SDS011;42463;52.214;21.238;2022-09-04T01:55:15;20.00;;;11.30;;
56581;SDS011;42463;52.214;21.238;2022-09-04T01:57:56;18.50;;;11.60;;
56581;SDS011;42463;52.214;21.238;2022-09-04T02:00:34;18.80;;;11.60;;
56581;SDS011;42463;52.214;21.238;2022-09-04T02:03:11;21.90;;;12.00;;
56581;SDS011;42463;52.214;21.238;2022-09-04T02:05:51;18.20;;;11.70;;
56581;SDS011;42463;52.214;21.238;2022-09-04T02:08:50;19.50;;;11.70;;
56581;SDS011;42463;52.214;21.238;2022-09-04T02:11:27;20.10;;;11.80;;
56581;SDS011;42463;52.214;21.238;2022-09-04T02:14:06;19.00;;;11.10;;
56581;SDS011;42463;52.214;21.238;2022-09-04T02:16:49;15.50;;;10.70;;
56581;SDS011;42463;52.214;21.238;2022-09-04T02:19:39;17.00;;;11.50;;
56581;SDS011;42463;52.214;21.238;2022-09-04T02:22:18;18.50;;;11.20;;
56581;SDS011;42463;52.214;21.238;2022-09-04T02:24:51;17.80;;;11.30;;
56581;SDS011;42463;52.214;21.238;2022-09-04T02:27:28;17.40;;;11.50;;
56581;SDS011;42463;52.214;21.238;2022-09-04T02:30:04;16.90;;;11.10;;
56581;SDS011;42463;52.214;21.238;2022-09-04T02:32:36;17.60;;;11.60;;
56581;SDS011;42463;52.214;21.238;2022-09-04T02:35:12;20.30;;;11.10;;
56581;SDS011;42463;52.214;21.238;2022-09-04T02:37:49;18.90;;;11.90;;
56581;SDS011;42463;52.214;21.238;2022-09-04T02:40:29;18.40;;;10.90;;
56581;SDS011;42463;52.214;21.238;2022-09-04T02:43:11;16.70;;;10.60;;
56581;SDS011;42463;52.214;21.238;2022-09-04T02:45:50;16.30;;;10.70;;
56581;SDS011;42463;52.214;21.238;2022-09-04T02:48:27;19.70;;;11.50;;
56581;SDS011;42463;52.214;21.238;2022-09-04T02:51:12;16.30;;;10.00;;
56581;SDS011;42463;52.214;21.238;2022-09-04T02:53:53;18.40;;;11.50;;
56581;SDS011;42463;52.214;21.238;2022-09-04T02:56:30;18.00;;;10.80;;
56581;SDS011;42463;52.214;21.238;2022-09-04T02:59:19;17.70;;;11.50;;
56581;SDS011;42463;52.214;21.238;2022-09-04T03:01:53;17.00;;;10.60;;
56581;SDS011;42463;52.214;21.238;2022-09-04T03:04:25;16.00;;;10.30;;
56581;SDS011;42463;52.214;21.238;2022-09-04T03:07:00;15.80;;;11.30;;
56581;SDS011;42463;52.214;21.238;2022-09-04T03:09:33;16.00;;;10.60;;
56581;SDS011;42463;52.214;21.238;2022-09-04T03:12:17;17.50;;;10.60;;
56581;SDS011;42463;52.214;21.238;2022-09-04T03:14:53;17.50;;;11.00;;
56581;SDS011;42463;52.214;21.238;2022-09-04T03:17:27;17.30;;;10.80;;
56581;SDS011;42463;52.214;21.238;2022-09-04T03:20:01;18.50;;;11.30;;
56581;SDS011;42463;52.214;21.238;2022-09-04T03:22:34;17.20;;;10.50;;
56581;SDS011;42463;52.214;21.238;2022-09-04T03:25:22;15.70;;;10.40;;
56581;SDS011;42463;52.214;21.238;2022-09-04T03:28:00;15.70;;;10.80;;
56581;SDS011;42463;52.214;21.238;2022-09-04T03:30:26;17.00;;;11.00;;
56581;SDS011;42463;52.214;21.238;2022-09-04T03:32:58;18.90;;;11.10;;
56581;SDS011;42463;52.214;21.238;2022-09-04T03:35:34;17.20;;;10.20;;
56581;SDS011;42463;52.214;21.238;2022-09-04T03:38:13;14.10;;;10.10;;
56581;SDS011;42463;52.214;21.238;2022-09-04T03:40:51;17.20;;;10.70;;
56581;SDS011;42463;52.214;21.238;2022-09-04T03:43:37;17.10;;;10.90;;
56581;SDS011;42463;52.214;21.238;2022-09-04T03:46:25;16.90;;;10.30;;
56581;SDS011;42463;52.214;21.238;2022-09-04T03:49:07;17.20;;;11.30;;
56581;SDS011;42463;52.214;21.238;2022-09-04T03:51:44;18.50;;;10.80;;
56581;SDS011;42463;52.214;21.238;2022-09-04T03:54:29;15.60;;;10.20;;
56581;SDS011;42463;52.214;21.238;2022-09-04T03:57:33;15.90;;;10.70;;
56581;SDS011;42463;52.214;21.238;2022-09-04T04:00:14;16.80;;;10.50;;
56581;SDS011;42463;52.214;21.238;2022-09-04T04:03:14;15.10;;;10.50;;
56581;SDS011;42463;52.214;21.238;2022-09-04T04:06:01;16.40;;;10.30;;
56581;SDS011;42463;52.214;21.238;2022-09-04T04:08:49;18.40;;;11.00;;
56581;SDS011;42463;52.214;21.238;2022-09-04T04:11:53;15.90;;;10.90;;
56581;SDS011;42463;52.214;21.238;2022-09-04T04:14:45;14.10;;;10.50;;
56581;SDS011;42463;52.214;21.238;2022-09-04T04:17:47;18.90;;;11.20;;
56581;SDS011;42463;52.214;21.238;2022-09-04T04:20:39;14.00;;;9.90;;
56581;SDS011;42463;52.214;21.238;2022-09-04T04:26:23;15.70;;;10.50;;
56581;SDS011;42463;52.214;21.238;2022-09-04T04:29:18;15.70;;;11.50;;
56581;SDS011;42463;52.214;21.238;2022-09-04T04:34:54;17.70;;;11.00;;
56581;SDS011;42463;52.214;21.238;2022-09-04T04:37:37;19.90;;;11.30;;
56581;SDS011;42463;52.214;21.238;2022-09-04T04:40:16;16.10;;;10.30;;
56581;SDS011;42463;52.214;21.238;2022-09-04T04:42:58;16.30;;;10.50;;
56581;SDS011;42463;52.214;21.238;2022-09-04T04:45:36;17.40;;;11.00;;
56581;SDS011;42463;52.214;21.238;2022-09-04T04:48:26;16.10;;;10.30;;
56581;SDS011;42463;52.214;21.238;2022-09-04T04:51:11;16.00;;;10.30;;
56581;SDS011;42463;52.214;21.238;2022-09-04T04:53:50;16.70;;;10.20;;
56581;SDS011;42463;52.214;21.238;2022-09-04T04:56:23;16.20;;;10.60;;
56581;SDS011;42463;52.214;21.238;2022-09-04T04:59:02;14.30;;;9.80;;
56581;SDS011;42463;52.214;21.238;2022-09-04T05:01:47;15.10;;;10.50;;
56581;SDS011;42463;52.214;21.238;2022-09-04T05:04:24;15.40;;;10.30;;
56581;SDS011;42463;52.214;21.238;2022-09-04T05:07:00;13.50;;;10.70;;
56581;SDS011;42463;52.214;21.238;2022-09-04T05:09:39;16.70;;;11.10;;
56581;SDS011;42463;52.214;21.238;2022-09-04T05:12:14;15.40;;;10.30;;
56581;SDS011;42463;52.214;21.238;2022-09-04T05:14:49;15.30;;;11.10;;
56581;SDS011;42463;52.214;21.238;2022-09-04T05:17:28;16.70;;;10.40;;
56581;SDS011;42463;52.214;21.238;2022-09-04T05:20:22;14.20;;;10.20;;
56581;SDS011;42463;52.214;21.238;2022-09-04T05:22:58;13.80;;;10.10;;
56581;SDS011;42463;52.214;21.238;2022-09-04T05:25:38;15.10;;;10.50;;
56581;SDS011;42463;52.214;21.238;2022-09-04T05:28:18;15.80;;;10.50;;
56581;SDS011;42463;52.214;21.238;2022-09-04T05:30:54;14.60;;;10.40;;
56581;SDS011;42463;52.214;21.238;2022-09-04T05:33:31;15.00;;;10.20;;
56581;SDS011;42463;52.214;21.238;2022-09-04T05:36:07;13.30;;;9.80;;
56581;SDS011;42463;52.214;21.238;2022-09-04T05:38:43;15.30;;;10.00;;
56581;SDS011;42463;52.214;21.238;2022-09-04T05:41:22;17.10;;;11.80;;
56581;SDS011;42463;52.214;21.238;2022-09-04T05:44:09;18.10;;;11.00;;
56581;SDS011;42463;52.214;21.238;2022-09-04T05:46:56;15.40;;;10.90;;
56581;SDS011;42463;52.214;21.238;2022-09-04T05:49:42;15.20;;;11.10;;
56581;SDS011;42463;52.214;21.238;2022-09-04T05:52:30;16.70;;;10.50;;
56581;SDS011;42463;52.214;21.238;2022-09-04T05:58:38;13.30;;;10.30;;
56581;SDS011;42463;52.214;21.238;2022-09-04T06:01:28;13.50;;;9.80;;
56581;SDS011;42463;52.214;21.238;2022-09-04T06:04:22;14.80;;;10.50;;
56581;SDS011;42463;52.214;21.238;2022-09-04T06:07:07;14.80;;;10.60;;
56581;SDS011;42463;52.214;21.238;2022-09-04T06:09:41;14.50;;;10.40;;
56581;SDS011;42463;52.214;21.238;2022-09-04T06:12:32;15.90;;;10.50;;
56581;SDS011;42463;52.214;21.238;2022-09-04T06:15:33;13.40;;;10.00;;
56581;SDS011;42463;52.214;21.238;2022-09-04T06:18:19;12.10;;;9.60;;
56581;SDS011;42463;52.214;21.238;2022-09-04T06:21:10;15.80;;;10.60;;
56581;SDS011;42463;52.214;21.238;2022-09-04T06:24:01;16.30;;;10.10;;
56581;SDS011;42463;52.214;21.238;2022-09-04T06:26:48;15.60;;;10.30;;
56581;SDS011;42463;52.214;21.238;2022-09-04T06:29:34;17.50;;;9.40;;
56581;SDS011;42463;52.214;21.238;2022-09-04T06:35:23;12.40;;;9.00;;
56581;SDS011;42463;52.214;21.238;2022-09-04T06:38:05;17.40;;;9.20;;
56581;SDS011;42463;52.214;21.238;2022-09-04T06:40:48;14.50;;;9.90;;
56581;SDS011;42463;52.214;21.238;2022-09-04T06:43:26;11.60;;;8.40;;
56581;SDS011;42463;52.214;21.238;2022-09-04T06:46:06;13.70;;;8.70;;
56581;SDS011;42463;52.214;21.238;2022-09-04T06:48:45;13.20;;;8.70;;
56581;SDS011;42463;52.214;21.238;2022-09-04T06:51:30;12.90;;;8.50;;
56581;SDS011;42463;52.214;21.238;2022-09-04T06:54:17;7.60;;;6.40;;
56581;SDS011;42463;52.214;21.238;2022-09-04T06:57:04;11.50;;;8.30;;
56581;SDS011;42463;52.214;21.238;2022-09-04T06:59:53;10.40;;;7.80;;
56581;SDS011;42463;52.214;21.238;2022-09-04T07:05:28;11.70;;;8.10;;
56581;SDS011;42463;52.214;21.238;2022-09-04T07:08:06;14.10;;;8.10;;
56581;SDS011;42463;52.214;21.238;2022-09-04T07:10:44;10.20;;;7.90;;
56581;SDS011;42463;52.214;21.238;2022-09-04T07:13:23;12.10;;;8.10;;
56581;SDS011;42463;52.214;21.238;2022-09-04T07:16:29;10.70;;;7.70;;
56581;SDS011;42463;52.214;21.238;2022-09-04T07:19:26;9.90;;;7.20;;
56581;SDS011;42463;52.214;21.238;2022-09-04T07:22:12;10.20;;;8.10;;
56581;SDS011;42463;52.214;21.238;2022-09-04T07:24:59;12.40;;;7.30;;
56581;SDS011;42463;52.214;21.238;2022-09-04T07:27:43;8.40;;;6.30;;
56581;SDS011;42463;52.214;21.238;2022-09-04T07:30:19;8.50;;;6.10;;
56581;SDS011;42463;52.214;21.238;2022-09-04T07:32:50;7.70;;;6.00;;
56581;SDS011;42463;52.214;21.238;2022-09-04T07:35:20;8.70;;;5.80;;
56581;SDS011;42463;52.214;21.238;2022-09-04T07:37:53;8.10;;;6.30;;
56581;SDS011;42463;52.214;21.238;2022-09-04T07:40:28;9.60;;;5.80;;
56581;SDS011;42463;52.214;21.238;2022-09-04T07:45:35;6.60;;;5.60;;
56581;SDS011;42463;52.214;21.238;2022-09-04T07:48:17;6.50;;;5.00;;
56581;SDS011;42463;52.214;21.238;2022-09-04T07:50:57;8.60;;;6.20;;
56581;SDS011;42463;52.214;21.238;2022-09-04T07:53:43;6.60;;;5.70;;
56581;SDS011;42463;52.214;21.238;2022-09-04T07:56:32;6.40;;;5.50;;
56581;SDS011;42463;52.214;21.238;2022-09-04T07:59:25;6.20;;;4.70;;
56581;SDS011;42463;52.214;21.238;2022-09-04T08:02:20;6.10;;;5.30;;
56581;SDS011;42463;52.214;21.238;2022-09-04T08:05:19;6.90;;;4.90;;
56581;SDS011;42463;52.214;21.238;2022-09-04T08:08:19;8.60;;;5.50;;
56581;SDS011;42463;52.214;21.238;2022-09-04T08:14:07;7.80;;;4.90;;
56581;SDS011;42463;52.214;21.238;2022-09-04T08:16:51;6.80;;;5.10;;
56581;SDS011;42463;52.214;21.238;2022-09-04T08:19:36;7.60;;;4.70;;
56581;SDS011;42463;52.214;21.238;2022-09-04T08:22:15;7.40;;;5.10;;
56581;SDS011;42463;52.214;21.238;2022-09-04T08:25:18;5.00;;;4.40;;
56581;SDS011;42463;52.214;21.238;2022-09-04T08:28:17;6.00;;;4.70;;
56581;SDS011;42463;52.214;21.238;2022-09-04T08:33:46;5.40;;;4.20;;
56581;SDS011;42463;52.214;21.238;2022-09-04T08:36:36;5.10;;;3.90;;
56581;SDS011;42463;52.214;21.238;2022-09-04T08:39:12;5.60;;;4.30;;
56581;SDS011;42463;52.214;21.238;2022-09-04T08:42:16;5.20;;;3.70;;
56581;SDS011;42463;52.214;21.238;2022-09-04T08:45:35;6.20;;;4.40;;
56581;SDS011;42463;52.214;21.238;2022-09-04T08:51:48;7.10;;;4.60;;
56581;SDS011;42463;52.214;21.238;2022-09-04T08:54:56;7.50;;;4.40;;
56581;SDS011;42463;52.214;21.238;2022-09-04T09:01:06;7.10;;;4.40;;
56581;SDS011;42463;52.214;21.238;2022-09-04T09:04:11;6.20;;;4.30;;
56581;SDS011;42463;52.214;21.238;2022-09-04T09:07:27;6.10;;;4.50;;
56581;SDS011;42463;52.214;21.238;2022-09-04T09:10:37;6.20;;;4.80;;
56581;SDS011;42463;52.214;21.238;2022-09-04T09:13:50;6.10;;;4.50;;
56581;SDS011;42463;52.214;21.238;2022-09-04T09:16:44;6.20;;;4.50;;
56581;SDS011;42463;52.214;21.238;2022-09-04T09:19:40;7.60;;;5.30;;
56581;SDS011;42463;52.214;21.238;2022-09-04T09:22:12;8.50;;;5.00;;
56581;SDS011;42463;52.214;21.238;2022-09-04T09:25:17;7.10;;;5.20;;
56581;SDS011;42463;52.214;21.238;2022-09-04T09:28:07;7.20;;;4.60;;
56581;SDS011;42463;52.214;21.238;2022-09-04T09:31:15;6.20;;;4.50;;
56581;SDS011;42463;52.214;21.238;2022-09-04T09:34:12;8.60;;;5.30;;
56581;SDS011;42463;52.214;21.238;2022-09-04T09:37:17;7.80;;;5.20;;
56581;SDS011;42463;52.214;21.238;2022-09-04T09:40:36;6.00;;;5.10;;
56581;SDS011;42463;52.214;21.238;2022-09-04T09:46:59;6.10;;;4.60;;
56581;SDS011;42463;52.214;21.238;2022-09-04T09:50:10;9.60;;;6.10;;
56581;SDS011;42463;52.214;21.238;2022-09-04T10:00:00;9.60;;;5.90;;
56581;SDS011;42463;52.214;21.238;2022-09-04T10:03:13;8.10;;;6.00;;
56581;SDS011;42463;52.214;21.238;2022-09-04T10:06:25;8.00;;;6.80;;
56581;SDS011;42463;52.214;21.238;2022-09-04T10:09:43;9.00;;;6.40;;
56581;SDS011;42463;52.214;21.238;2022-09-04T10:12:45;6.90;;;5.20;;
56581;SDS011;42463;52.214;21.238;2022-09-04T10:15:54;8.20;;;5.70;;
56581;SDS011;42463;52.214;21.238;2022-09-04T10:22:19;8.40;;;5.80;;
56581;SDS011;42463;52.214;21.238;2022-09-04T10:25:18;9.20;;;5.80;;
56581;SDS011;42463;52.214;21.238;2022-09-04T10:28:19;6.50;;;5.50;;
56581;SDS011;42463;52.214;21.238;2022-09-04T10:34:18;8.20;;;6.10;;
56581;SDS011;42463;52.214;21.238;2022-09-04T10:37:05;7.40;;;5.40;;
56581;SDS011;42463;52.214;21.238;2022-09-04T10:39:50;7.00;;;5.40;;
56581;SDS011;42463;52.214;21.238;2022-09-04T10:42:51;7.90;;;5.60;;
56581;SDS011;42463;52.214;21.238;2022-09-04T10:45:33;7.90;;;5.80;;
56581;SDS011;42463;52.214;21.238;2022-09-04T10:51:46;8.30;;;6.20;;
56581;SDS011;42463;52.214;21.238;2022-09-04T10:54:40;6.50;;;5.60;;
56581;SDS011;42463;52.214;21.238;2022-09-04T10:57:26;7.70;;;6.00;;
56581;SDS011;42463;52.214;21.238;2022-09-04T11:00:15;6.40;;;5.50;;
56581;SDS011;42463;52.214;21.238;2022-09-04T11:03:27;9.40;;;6.40;;
56581;SDS011;42463;52.214;21.238;2022-09-04T11:06:34;8.60;;;6.40;;
56581;SDS011;42463;52.214;21.238;2022-09-04T11:09:26;7.50;;;5.50;;
56581;SDS011;42463;52.214;21.238;2022-09-04T11:12:29;9.10;;;7.00;;
56581;SDS011;42463;52.214;21.238;2022-09-04T11:15:27;10.90;;;6.50;;
56581;SDS011;42463;52.214;21.238;2022-09-04T11:22:30;9.20;;;6.60;;
56581;SDS011;42463;52.214;21.238;2022-09-04T11:25:38;9.40;;;7.20;;
56581;SDS011;42463;52.214;21.238;2022-09-04T11:28:52;8.90;;;6.30;;
56581;SDS011;42463;52.214;21.238;2022-09-04T11:34:53;7.80;;;5.80;;
56581;SDS011;42463;52.214;21.238;2022-09-04T11:37:59;8.90;;;5.80;;
56581;SDS011;42463;52.214;21.238;2022-09-04T11:40:55;8.00;;;6.10;;
56581;SDS011;42463;52.214;21.238;2022-09-04T11:43:56;6.80;;;5.80;;
56581;SDS011;42463;52.214;21.238;2022-09-04T11:46:45;7.20;;;6.00;;
56581;SDS011;42463;52.214;21.238;2022-09-04T11:49:38;9.50;;;6.20;;
56581;SDS011;42463;52.214;21.238;2022-09-04T11:52:23;7.30;;;5.50;;
56581;SDS011;42463;52.214;21.238;2022-09-04T11:55:15;8.80;;;6.00;;
56581;SDS011;42463;52.214;21.238;2022-09-04T11:58:00;9.80;;;6.00;;
56581;SDS011;42463;52.214;21.238;2022-09-04T12:00:34;8.00;;;5.70;;
56581;SDS011;42463;52.214;21.238;2022-09-04T12:03:30;7.90;;;5.90;;
56581;SDS011;42463;52.214;21.238;2022-09-04T12:06:32;7.50;;;5.20;;
56581;SDS011;42463;52.214;21.238;2022-09-04T12:09:37;6.30;;;4.80;;
56581;SDS011;42463;52.214;21.238;2022-09-04T12:12:41;7.00;;;5.60;;
56581;SDS011;42463;52.214;21.238;2022-09-04T12:15:31;6.60;;;5.60;;
56581;SDS011;42463;52.214;21.238;2022-09-04T12:21:51;6.90;;;5.70;;
56581;SDS011;42463;52.214;21.238;2022-09-04T12:24:50;6.40;;;5.50;;
56581;SDS011;42463;52.214;21.238;2022-09-04T12:31:05;7.60;;;5.60;;
56581;SDS011;42463;52.214;21.238;2022-09-04T12:34:01;7.80;;;5.60;;
56581;SDS011;42463;52.214;21.238;2022-09-04T12:43:02;6.50;;;5.50;;
56581;SDS011;42463;52.214;21.238;2022-09-04T12:45:42;6.60;;;4.60;;
56581;SDS011;42463;52.214;21.238;2022-09-04T12:48:17;8.50;;;5.20;;
56581;SDS011;42463;52.214;21.238;2022-09-04T12:50:58;7.10;;;4.90;;
56581;SDS011;42463;52.214;21.238;2022-09-04T12:56:38;5.10;;;4.40;;
56581;SDS011;42463;52.214;21.238;2022-09-04T12:59:22;6.40;;;4.90;;
56581;SDS011;42463;52.214;21.238;2022-09-04T13:02:11;6.40;;;4.80;;
56581;SDS011;42463;52.214;21.238;2022-09-04T13:04:53;6.40;;;4.60;;
56581;SDS011;42463;52.214;21.238;2022-09-04T13:07:32;4.60;;;4.20;;
56581;SDS011;42463;52.214;21.238;2022-09-04T13:10:17;8.60;;;4.50;;
56581;SDS011;42463;52.214;21.238;2022-09-04T13:13:01;7.00;;;4.00;;
56581;SDS011;42463;52.214;21.238;2022-09-04T13:15:41;5.50;;;3.60;;
56581;SDS011;42463;52.214;21.238;2022-09-04T13:18:29;5.00;;;4.20;;
56581;SDS011;42463;52.214;21.238;2022-09-04T13:21:13;5.20;;;3.80;;
56581;SDS011;42463;52.214;21.238;2022-09-04T13:23:59;6.90;;;4.70;;
56581;SDS011;42463;52.214;21.238;2022-09-04T13:26:46;5.80;;;4.30;;
56581;SDS011;42463;52.214;21.238;2022-09-04T13:29:28;4.90;;;3.90;;
56581;SDS011;42463;52.214;21.238;2022-09-04T13:32:12;7.40;;;4.70;;
56581;SDS011;42463;52.214;21.238;2022-09-04T13:35:00;5.30;;;4.30;;
56581;SDS011;42463;52.214;21.238;2022-09-04T13:37:35;6.10;;;4.00;;
56581;SDS011;42463;52.214;21.238;2022-09-04T13:40:34;5.20;;;3.80;;
56581;SDS011;42463;52.214;21.238;2022-09-04T13:43:27;5.10;;;4.50;;
56581;SDS011;42463;52.214;21.238;2022-09-04T13:46:05;4.40;;;4.00;;
56581;SDS011;42463;52.214;21.238;2022-09-04T13:48:38;5.30;;;4.10;;
56581;SDS011;42463;52.214;21.238;2022-09-04T13:51:10;5.80;;;4.20;;
56581;SDS011;42463;52.214;21.238;2022-09-04T13:53:50;6.10;;;4.10;;
56581;SDS011;42463;52.214;21.238;2022-09-04T13:56:30;7.20;;;4.50;;
56581;SDS011;42463;52.214;21.238;2022-09-04T13:59:03;7.20;;;4.60;;
56581;SDS011;42463;52.214;21.238;2022-09-04T14:01:33;6.40;;;4.20;;
56581;SDS011;42463;52.214;21.238;2022-09-04T14:04:09;8.40;;;4.60;;
56581;SDS011;42463;52.214;21.238;2022-09-04T14:06:39;6.60;;;4.50;;
56581;SDS011;42463;52.214;21.238;2022-09-04T14:09:06;6.50;;;4.60;;
56581;SDS011;42463;52.214;21.238;2022-09-04T14:11:48;5.30;;;4.60;;
56581;SDS011;42463;52.214;21.238;2022-09-04T14:18:02;4.80;;;3.60;;
56581;SDS011;42463;52.214;21.238;2022-09-04T14:20:43;5.10;;;4.00;;
56581;SDS011;42463;52.214;21.238;2022-09-04T14:23:22;6.60;;;4.60;;
56581;SDS011;42463;52.214;21.238;2022-09-04T14:26:02;6.40;;;4.80;;
56581;SDS011;42463;52.214;21.238;2022-09-04T14:28:37;4.20;;;3.80;;
56581;SDS011;42463;52.214;21.238;2022-09-04T14:31:12;6.00;;;4.70;;
56581;SDS011;42463;52.214;21.238;2022-09-04T14:33:49;5.80;;;4.80;;
56581;SDS011;42463;52.214;21.238;2022-09-04T14:36:26;5.40;;;4.30;;
56581;SDS011;42463;52.214;21.238;2022-09-04T14:39:11;5.20;;;4.30;;
56581;SDS011;42463;52.214;21.238;2022-09-04T14:41:51;5.80;;;4.20;;
56581;SDS011;42463;52.214;21.238;2022-09-04T14:44:35;6.60;;;5.30;;
56581;SDS011;42463;52.214;21.238;2022-09-04T14:47:15;8.90;;;5.00;;
56581;SDS011;42463;52.214;21.238;2022-09-04T14:49:53;5.10;;;4.40;;
56581;SDS011;42463;52.214;21.238;2022-09-04T14:52:25;9.70;;;6.30;;
56581;SDS011;42463;52.214;21.238;2022-09-04T14:54:56;14.60;;;9.30;;
56581;SDS011;42463;52.214;21.238;2022-09-04T14:57:26;11.30;;;6.80;;
56581;SDS011;42463;52.214;21.238;2022-09-04T15:00:03;10.60;;;5.70;;
56581;SDS011;42463;52.214;21.238;2022-09-04T15:02:42;9.50;;;5.60;;
56581;SDS011;42463;52.214;21.238;2022-09-04T15:05:19;8.50;;;5.70;;
56581;SDS011;42463;52.214;21.238;2022-09-04T15:07:52;8.00;;;5.10;;
56581;SDS011;42463;52.214;21.238;2022-09-04T15:10:24;6.50;;;4.20;;
56581;SDS011;42463;52.214;21.238;2022-09-04T15:13:04;6.80;;;5.00;;
56581;SDS011;42463;52.214;21.238;2022-09-04T15:15:46;6.90;;;5.20;;
56581;SDS011;42463;52.214;21.238;2022-09-04T15:18:21;6.50;;;5.20;;
56581;SDS011;42463;52.214;21.238;2022-09-04T15:20:55;7.10;;;5.60;;
56581;SDS011;42463;52.214;21.238;2022-09-04T15:23:28;8.30;;;5.10;;
56581;SDS011;42463;52.214;21.238;2022-09-04T15:26:03;7.40;;;5.20;;
56581;SDS011;42463;52.214;21.238;2022-09-04T15:28:36;6.70;;;4.60;;
56581;SDS011;42463;52.214;21.238;2022-09-04T15:31:09;6.00;;;4.90;;
56581;SDS011;42463;52.214;21.238;2022-09-04T15:33:39;6.80;;;4.90;;
56581;SDS011;42463;52.214;21.238;2022-09-04T15:36:10;7.10;;;5.10;;
56581;SDS011;42463;52.214;21.238;2022-09-04T15:38:46;9.80;;;6.10;;
56581;SDS011;42463;52.214;21.238;2022-09-04T15:41:20;6.70;;;5.50;;
56581;SDS011;42463;52.214;21.238;2022-09-04T15:43:51;6.20;;;5.10;;
56581;SDS011;42463;52.214;21.238;2022-09-04T15:46:27;6.50;;;4.60;;
56581;SDS011;42463;52.214;21.238;2022-09-04T15:52:08;5.30;;;4.40;;
56581;SDS011;42463;52.214;21.238;2022-09-04T15:54:57;5.40;;;4.30;;
56581;SDS011;42463;52.214;21.238;2022-09-04T15:57:31;9.20;;;4.80;;
56581;SDS011;42463;52.214;21.238;2022-09-04T16:00:13;10.20;;;5.60;;
56581;SDS011;42463;52.214;21.238;2022-09-04T16:02:48;5.80;;;4.50;;
56581;SDS011;42463;52.214;21.238;2022-09-04T16:05:23;6.10;;;3.70;;
56581;SDS011;42463;52.214;21.238;2022-09-04T16:08:10;7.80;;;4.60;;
56581;SDS011;42463;52.214;21.238;2022-09-04T16:10:47;5.80;;;4.10;;
56581;SDS011;42463;52.214;21.238;2022-09-04T16:13:37;5.90;;;4.50;;
56581;SDS011;42463;52.214;21.238;2022-09-04T16:16:11;5.50;;;4.20;;
56581;SDS011;42463;52.214;21.238;2022-09-04T16:21:23;5.80;;;4.50;;
56581;SDS011;42463;52.214;21.238;2022-09-04T16:24:07;5.10;;;4.20;;
56581;SDS011;42463;52.214;21.238;2022-09-04T16:26:39;8.50;;;4.30;;
56581;SDS011;42463;52.214;21.238;2022-09-04T16:29:15;7.20;;;4.70;;
56581;SDS011;42463;52.214;21.238;2022-09-04T16:31:52;6.10;;;4.30;;
56581;SDS011;42463;52.214;21.238;2022-09-04T16:34:23;9.20;;;5.60;;
56581;SDS011;42463;52.214;21.238;2022-09-04T16:36:59;6.30;;;4.30;;
56581;SDS011;42463;52.214;21.238;2022-09-04T16:39:40;7.70;;;4.60;;
56581;SDS011;42463;52.214;21.238;2022-09-04T16:42:16;6.10;;;4.40;;
56581;SDS011;42463;52.214;21.238;2022-09-04T16:44:48;8.40;;;4.80;;
56581;SDS011;42463;52.214;21.238;2022-09-04T16:47:24;7.80;;;5.00;;
56581;SDS011;42463;52.214;21.238;2022-09-04T16:49:58;7.40;;;4.60;;
56581;SDS011;42463;52.214;21.238;2022-09-04T16:52:45;8.30;;;4.80;;
56581;SDS011;42463;52.214;21.238;2022-09-04T16:55:28;7.80;;;4.70;;
56581;SDS011;42463;52.214;21.238;2022-09-04T16:58:11;6.20;;;4.50;;
56581;SDS011;42463;52.214;21.238;2022-09-04T17:00:52;6.30;;;4.60;;
56581;SDS011;42463;52.214;21.238;2022-09-04T17:03:42;7.20;;;4.20;;
56581;SDS011;42463;52.214;21.238;2022-09-04T17:06:23;9.60;;;4.70;;
56581;SDS011;42463;52.214;21.238;2022-09-04T17:08:58;7.70;;;4.10;;
56581;SDS011;42463;52.214;21.238;2022-09-04T17:11:37;8.40;;;4.10;;
56581;SDS011;42463;52.214;21.238;2022-09-04T17:14:19;4.40;;;3.30;;
56581;SDS011;42463;52.214;21.238;2022-09-04T17:16:55;5.10;;;3.80;;
56581;SDS011;42463;52.214;21.238;2022-09-04T17:19:30;6.20;;;3.90;;
56581;SDS011;42463;52.214;21.238;2022-09-04T17:22:09;6.60;;;3.70;;
56581;SDS011;42463;52.214;21.238;2022-09-04T17:25:02;6.50;;;3.60;;
56581;SDS011;42463;52.214;21.238;2022-09-04T17:27:38;6.60;;;3.90;;
56581;SDS011;42463;52.214;21.238;2022-09-04T17:30:21;5.00;;;3.50;;